Time;durP1;ratioP1;P1;durP2;ratioP2;P2;SDS_P1;SDS_P2;PMS_P1;PMS_P2;Temp;Humidity;BMP_temperature;BMP_pressure;BME280_temperature;BME280_humidity;BME280_pressure;Samples;Min_cycle;Max_cycle;Signal;HPM_P1;HPM_P2
2023/08/27 00:00:04;;;;;;;1.20;1.10;;;;;;;;;;5055874;28;20025;-79
2023/08/27 00:02:30;;;;;;;1.20;1.10;;;;;;;;;;5055649;28;20049;-79
2023/08/27 00:04:55;;;;;;;1.40;1.30;;;;;;;;;;5055663;28;20036;-78
2023/08/27 00:07:23;;;;;;;1.38;1.15;;;;;;;;;;5054829;28;20064;-78
2023/08/27 00:09:49;;;;;;;1.30;1.20;;;;;;;;;;5053050;28;20051;-78
2023/08/27 00:12:16;;;;;;;1.67;1.27;;;;;;;;;;5054213;28;20419;-78
2023/08/27 00:14:41;;;;;;;1.42;1.27;;;;;;;;;;5055722;28;20068;-78
2023/08/27 00:17:07;;;;;;;1.20;1.10;;;;;;;;;;5055473;28;20061;-78
2023/08/27 00:19:32;;;;;;;2.33;1.20;;;;;;;;;;5055538;28;20060;-78
2023/08/27 00:21:58;;;;;;;1.30;1.13;;;;;;;;;;5054511;28;20037;-78
2023/08/27 00:24:24;;;;;;;1.58;1.17;;;;;;;;;;5054382;28;20025;-78
2023/08/27 00:26:51;;;;;;;2.13;1.20;;;;;;;;;;5055521;28;20044;-78
2023/08/27 00:29:19;;;;;;;1.60;1.20;;;;;;;;;;5054178;28;20495;-78
2023/08/27 00:31:45;;;;;;;1.40;1.10;;;;;;;;;;5055223;28;20036;-78
2023/08/27 00:34:10;;;;;;;1.55;1.20;;;;;;;;;;5053931;28;20482;-78
2023/08/27 00:36:36;;;;;;;1.40;1.30;;;;;;;;;;5037515;28;20041;-78
2023/08/27 00:39:01;;;;;;;2.13;1.30;;;;;;;;;;5053820;28;20032;-78
2023/08/27 00:41:27;;;;;;;1.30;1.20;;;;;;;;;;5053311;28;20029;-78
2023/08/27 00:43:52;;;;;;;1.05;1.00;;;;;;;;;;5053633;28;20384;-78
2023/08/27 00:46:18;;;;;;;1.73;1.30;;;;;;;;;;5055153;28;20021;-78
2023/08/27 00:48:44;;;;;;;1.33;1.20;;;;;;;;;;5037517;28;20037;-78
2023/08/27 00:51:10;;;;;;;2.72;1.20;;;;;;;;;;5037074;28;20044;-78
2023/08/27 00:53:37;;;;;;;1.20;1.10;;;;;;;;;;5053655;28;20095;-78
2023/08/27 00:56:03;;;;;;;2.75;1.23;;;;;;;;;;5054755;28;20025;-78
2023/08/27 00:58:28;;;;;;;1.20;1.10;;;;;;;;;;5036810;28;20031;-78
2023/08/27 01:00:54;;;;;;;1.58;1.30;;;;;;;;;;5054917;28;20049;-78
2023/08/27 01:03:19;;;;;;;1.77;1.30;;;;;;;;;;5053359;28;20495;-79
2023/08/27 01:05:45;;;;;;;1.30;1.20;;;;;;;;;;5054502;28;20075;-78
2023/08/27 01:08:25;;;;;;;1.40;1.30;;;;;;;;;;5053407;28;20079;-78
2023/08/27 01:11:02;;;;;;;1.42;1.13;;;;;;;;;;5053594;28;20051;-78
2023/08/27 01:13:52;;;;;;;1.30;1.20;;;;;;;;;;5053270;28;20028;-78
2023/08/27 01:16:20;;;;;;;1.40;1.20;;;;;;;;;;5055370;28;20494;-78
2023/08/27 01:18:46;;;;;;;1.30;1.20;;;;;;;;;;5053291;28;20045;-78
2023/08/27 01:21:25;;;;;;;1.30;1.20;;;;;;;;;;5052778;28;20040;-78
2023/08/27 01:23:51;;;;;;;1.50;1.20;;;;;;;;;;5053126;28;20082;-78
2023/08/27 01:26:40;;;;;;;1.50;1.40;;;;;;;;;;5053219;28;20029;-78
2023/08/27 01:29:32;;;;;;;1.35;1.25;;;;;;;;;;5054676;28;20103;-78
2023/08/27 01:32:12;;;;;;;1.13;1.02;;;;;;;;;;5052907;28;20094;-78
2023/08/27 01:34:39;;;;;;;0.93;0.93;;;;;;;;;;5053160;28;20025;-78
2023/08/27 01:37:05;;;;;;;1.38;1.27;;;;;;;;;;5053157;28;20028;-78
2023/08/27 01:39:31;;;;;;;2.90;1.30;;;;;;;;;;5052801;28;20120;-78
2023/08/27 01:41:56;;;;;;;1.40;1.20;;;;;;;;;;5052747;28;20060;-78
2023/08/27 01:44:22;;;;;;;1.95;1.10;;;;;;;;;;5054016;28;20049;-79
2023/08/27 01:46:47;;;;;;;1.73;1.23;;;;;;;;;;5054118;28;20421;-79
2023/08/27 01:49:12;;;;;;;2.05;1.30;;;;;;;;;;5052946;28;20076;-79
2023/08/27 01:51:38;;;;;;;1.70;1.20;;;;;;;;;;5053724;28;20111;-79
2023/08/27 01:54:06;;;;;;;1.13;1.05;;;;;;;;;;5053770;28;20116;-78
2023/08/27 01:56:32;;;;;;;1.35;1.10;;;;;;;;;;5053614;28;20021;-78
2023/08/27 01:58:57;;;;;;;1.15;1.02;;;;;;;;;;5053834;28;20040;-79
2023/08/27 02:01:22;;;;;;;1.00;1.00;;;;;;;;;;5052167;28;20032;-79
2023/08/27 02:03:48;;;;;;;1.20;1.10;;;;;;;;;;5053018;28;20039;-78
2023/08/27 02:06:13;;;;;;;1.75;1.20;;;;;;;;;;5053995;28;20037;-78
2023/08/27 02:08:39;;;;;;;2.63;1.15;;;;;;;;;;5053654;28;20028;-78
2023/08/27 02:11:04;;;;;;;1.17;1.08;;;;;;;;;;5053593;28;20479;-78
2023/08/27 02:13:30;;;;;;;2.13;1.17;;;;;;;;;;5053286;28;20029;-78
2023/08/27 02:15:56;;;;;;;1.20;1.10;;;;;;;;;;5052253;28;20029;-78
2023/08/27 02:18:22;;;;;;;2.95;1.15;;;;;;;;;;5053308;28;20039;-78
2023/08/27 02:20:47;;;;;;;1.20;1.10;;;;;;;;;;5051944;28;20024;-78
2023/08/27 02:23:13;;;;;;;2.25;0.90;;;;;;;;;;5051952;28;20036;-78
2023/08/27 02:25:38;;;;;;;1.25;1.10;;;;;;;;;;5053186;28;20050;-78
2023/08/27 02:28:04;;;;;;;1.92;1.20;;;;;;;;;;5053559;28;20033;-78
2023/08/27 02:30:30;;;;;;;1.30;1.17;;;;;;;;;;5052165;28;20486;-78
2023/08/27 02:32:56;;;;;;;1.10;1.00;;;;;;;;;;5051249;28;20033;-78
2023/08/27 02:35:21;;;;;;;1.05;1.00;;;;;;;;;;5018819;28;20399;-78
2023/08/27 02:37:47;;;;;;;1.58;1.08;;;;;;;;;;5051783;28;20025;-78
2023/08/27 02:40:13;;;;;;;1.00;1.00;;;;;;;;;;5051823;28;20492;-78
2023/08/27 02:42:39;;;;;;;0.95;0.85;;;;;;;;;;5052105;28;20037;-78
2023/08/27 02:45:06;;;;;;;3.05;1.38;;;;;;;;;;5051765;28;20037;-78
2023/08/27 02:47:31;;;;;;;1.25;1.15;;;;;;;;;;5052307;28;20036;-78
2023/08/27 02:49:57;;;;;;;2.47;1.00;;;;;;;;;;5052997;28;20029;-78
2023/08/27 02:52:23;;;;;;;1.35;1.13;;;;;;;;;;5051698;28;20423;-78
2023/08/27 02:54:48;;;;;;;1.00;0.90;;;;;;;;;;5051803;28;20024;-78
2023/08/27 02:57:14;;;;;;;1.20;1.05;;;;;;;;;;5051711;28;20079;-78
2023/08/27 02:59:39;;;;;;;1.67;1.30;;;;;;;;;;5052030;28;20079;-78
2023/08/27 03:02:05;;;;;;;1.13;1.10;;;;;;;;;;5052812;28;20452;-78
2023/08/27 03:04:31;;;;;;;1.13;1.00;;;;;;;;;;5052871;28;20044;-78
2023/08/27 03:06:56;;;;;;;1.40;1.00;;;;;;;;;;5051544;28;20116;-78
2023/08/27 03:09:22;;;;;;;0.95;0.95;;;;;;;;;;5052761;28;20082;-78
2023/08/27 03:11:47;;;;;;;1.60;1.00;;;;;;;;;;5052932;28;20029;-78
2023/08/27 03:14:13;;;;;;;1.00;0.90;;;;;;;;;;5051650;28;20063;-79
2023/08/27 03:16:38;;;;;;;0.95;0.90;;;;;;;;;;5051680;28;20025;-78
2023/08/27 03:19:04;;;;;;;2.40;1.13;;;;;;;;;;5051365;28;20040;-78
2023/08/27 03:21:29;;;;;;;0.98;0.98;;;;;;;;;;5052856;28;20032;-78
2023/08/27 03:23:55;;;;;;;0.90;0.90;;;;;;;;;;5052719;28;20517;-78
2023/08/27 03:26:20;;;;;;;1.50;0.90;;;;;;;;;;5051434;28;20029;-78
2023/08/27 03:28:46;;;;;;;1.00;1.00;;;;;;;;;;5052626;28;20162;-78
2023/08/27 03:31:12;;;;;;;2.17;0.90;;;;;;;;;;5052818;28;20048;-78
2023/08/27 03:33:37;;;;;;;4.43;1.05;;;;;;;;;;5051306;28;20126;-78
2023/08/27 03:36:03;;;;;;;1.00;0.90;;;;;;;;;;5051495;28;20025;-78
2023/08/27 03:38:28;;;;;;;1.20;1.10;;;;;;;;;;5051418;28;20029;-78
2023/08/27 03:40:54;;;;;;;1.08;0.90;;;;;;;;;;5051595;28;20031;-78
2023/08/27 03:43:19;;;;;;;1.38;0.80;;;;;;;;;;5051462;28;20029;-78
2023/08/27 03:45:44;;;;;;;1.52;0.95;;;;;;;;;;5054528;28;20041;-78
2023/08/27 03:48:10;;;;;;;1.80;0.98;;;;;;;;;;5055094;28;20373;-78
2023/08/27 03:50:36;;;;;;;1.50;1.00;;;;;;;;;;5038154;28;20021;-79
2023/08/27 03:53:02;;;;;;;1.73;0.93;;;;;;;;;;5054738;28;20104;-78
2023/08/27 03:55:28;;;;;;;1.02;0.90;;;;;;;;;;5056238;28;20021;-78
2023/08/27 03:57:54;;;;;;;1.85;1.10;;;;;;;;;;5056128;28;20029;-79
2023/08/27 04:00:20;;;;;;;0.95;0.90;;;;;;;;;;5054813;28;20507;-78
2023/08/27 04:02:45;;;;;;;1.67;1.13;;;;;;;;;;5054333;28;20053;-78
2023/08/27 04:05:11;;;;;;;0.93;0.93;;;;;;;;;;5054806;28;20033;-78
2023/08/27 04:07:37;;;;;;;0.90;0.90;;;;;;;;;;5054504;28;20024;-78
2023/08/27 04:10:04;;;;;;;1.20;1.10;;;;;;;;;;5054622;28;20144;-78
2023/08/27 04:12:31;;;;;;;0.98;0.90;;;;;;;;;;5037871;28;20476;-78
2023/08/27 04:14:57;;;;;;;3.22;0.98;;;;;;;;;;5054666;28;20032;-78
2023/08/27 04:17:22;;;;;;;1.17;1.08;;;;;;;;;;5055355;28;20035;-78
2023/08/27 04:19:48;;;;;;;1.83;0.98;;;;;;;;;;5037618;28;20037;-78
2023/08/27 04:22:13;;;;;;;2.75;1.10;;;;;;;;;;5037704;28;20029;-78
2023/08/27 04:24:38;;;;;;;1.10;1.00;;;;;;;;;;5054815;28;20040;-78
2023/08/27 04:27:04;;;;;;;1.70;1.13;;;;;;;;;;5054461;28;20033;-78
2023/08/27 04:29:29;;;;;;;3.63;1.15;;;;;;;;;;5055710;28;20032;-78
2023/08/27 04:31:55;;;;;;;1.13;0.90;;;;;;;;;;5054272;28;20061;-78
2023/08/27 04:34:20;;;;;;;1.00;0.90;;;;;;;;;;5054386;28;20028;-78
2023/08/27 04:36:45;;;;;;;1.70;1.15;;;;;;;;;;5055191;28;20472;-78
2023/08/27 04:39:13;;;;;;;1.35;1.00;;;;;;;;;;5054257;28;20029;-78
2023/08/27 04:41:39;;;;;;;1.55;1.10;;;;;;;;;;5037496;28;20480;-78
2023/08/27 04:44:05;;;;;;;1.63;1.10;;;;;;;;;;5053863;28;20032;-78
2023/08/27 04:46:30;;;;;;;2.40;0.90;;;;;;;;;;5037620;28;20466;-77
2023/08/27 04:48:56;;;;;;;1.95;1.00;;;;;;;;;;5053674;28;20057;-78
2023/08/27 04:51:21;;;;;;;1.80;0.90;;;;;;;;;;5054838;28;20498;-78
2023/08/27 04:53:47;;;;;;;1.02;0.90;;;;;;;;;;5054179;28;20112;-77
2023/08/27 04:56:12;;;;;;;2.03;0.90;;;;;;;;;;5053551;28;20522;-78
2023/08/27 04:58:37;;;;;;;1.90;0.90;;;;;;;;;;5054925;28;20024;-78
2023/08/27 05:01:03;;;;;;;1.30;0.90;;;;;;;;;;5056470;28;20106;-78
2023/08/27 05:03:28;;;;;;;1.15;1.05;;;;;;;;;;5054962;28;20073;-78
2023/08/27 05:05:54;;;;;;;0.80;0.80;;;;;;;;;;5056224;28;20036;-78
2023/08/27 05:08:19;;;;;;;1.55;1.00;;;;;;;;;;5055142;28;20055;-78
2023/08/27 05:10:45;;;;;;;3.15;1.15;;;;;;;;;;5037419;28;20036;-79
2023/08/27 05:13:10;;;;;;;1.25;0.90;;;;;;;;;;5053722;28;20029;-79
2023/08/27 05:15:36;;;;;;;0.90;0.90;;;;;;;;;;5053506;28;20468;-78
2023/08/27 05:18:02;;;;;;;1.02;0.90;;;;;;;;;;5054937;28;20044;-79
2023/08/27 05:20:27;;;;;;;1.08;0.88;;;;;;;;;;5053427;28;20029;-78
2023/08/27 05:22:53;;;;;;;1.73;1.10;;;;;;;;;;5053580;28;20040;-79
2023/08/27 05:25:18;;;;;;;1.60;1.13;;;;;;;;;;5054711;28;20032;-78
2023/08/27 05:27:44;;;;;;;0.90;0.90;;;;;;;;;;5055043;28;20029;-78
2023/08/27 05:30:12;;;;;;;0.95;0.88;;;;;;;;;;5054649;28;20037;-79
2023/08/27 05:32:37;;;;;;;2.17;0.90;;;;;;;;;;5053084;28;20040;-79
2023/08/27 05:35:03;;;;;;;2.00;1.08;;;;;;;;;;5054634;28;20029;-79
2023/08/27 05:37:28;;;;;;;1.25;0.88;;;;;;;;;;5052861;28;20076;-78
2023/08/27 05:39:53;;;;;;;1.25;1.02;;;;;;;;;;5054447;28;20033;-78
2023/08/27 05:42:19;;;;;;;1.80;0.90;;;;;;;;;;5054207;28;20029;-79
2023/08/27 05:44:44;;;;;;;0.88;0.88;;;;;;;;;;5052860;28;20041;-78
2023/08/27 05:47:09;;;;;;;1.65;1.00;;;;;;;;;;5054558;28;20388;-79
2023/08/27 05:49:35;;;;;;;1.17;0.88;;;;;;;;;;5053606;28;20059;-79
2023/08/27 05:52:00;;;;;;;1.23;1.00;;;;;;;;;;5053876;28;20365;-78
2023/08/27 05:54:26;;;;;;;0.80;0.80;;;;;;;;;;5054240;28;20037;-78
2023/08/27 05:56:51;;;;;;;1.23;0.90;;;;;;;;;;5054102;28;20025;-79
2023/08/27 05:59:16;;;;;;;1.20;0.90;;;;;;;;;;5053380;28;20166;-78
2023/08/27 06:01:42;;;;;;;0.93;0.88;;;;;;;;;;5054053;28;20029;-79
2023/08/27 06:04:08;;;;;;;0.85;0.85;;;;;;;;;;5053876;28;20419;-79
2023/08/27 06:06:34;;;;;;;1.85;0.90;;;;;;;;;;5053994;28;20075;-79
2023/08/27 06:08:59;;;;;;;1.40;0.82;;;;;;;;;;5036229;28;20036;-78
2023/08/27 06:11:24;;;;;;;2.17;1.15;;;;;;;;;;5036390;28;20032;-78
2023/08/27 06:13:50;;;;;;;0.70;0.70;;;;;;;;;;5053134;28;20082;-78
2023/08/27 06:16:15;;;;;;;0.80;0.80;;;;;;;;;;5054290;28;20025;-78
2023/08/27 06:18:41;;;;;;;0.93;0.80;;;;;;;;;;5052822;28;20537;-78
2023/08/27 06:21:06;;;;;;;0.80;0.80;;;;;;;;;;5052167;28;20035;-79
2023/08/27 06:23:32;;;;;;;1.00;0.90;;;;;;;;;;5052425;28;20071;-79
2023/08/27 06:26:02;;;;;;;1.38;0.88;;;;;;;;;;5052022;28;20052;-78
2023/08/27 06:28:27;;;;;;;0.85;0.82;;;;;;;;;;5053692;28;20384;-78
2023/08/27 06:30:53;;;;;;;1.30;0.90;;;;;;;;;;5051929;28;20043;-79
2023/08/27 06:33:18;;;;;;;1.30;1.10;;;;;;;;;;5053312;28;20392;-78
2023/08/27 06:35:44;;;;;;;0.90;0.90;;;;;;;;;;5052021;28;20036;-78
2023/08/27 06:38:09;;;;;;;2.60;0.80;;;;;;;;;;5051940;28;20107;-78
2023/08/27 06:40:34;;;;;;;0.80;0.80;;;;;;;;;;5052003;28;20033;-78
2023/08/27 06:43:00;;;;;;;0.75;0.75;;;;;;;;;;5053162;28;20116;-79
2023/08/27 06:45:27;;;;;;;0.93;0.85;;;;;;;;;;5051564;28;20411;-79
2023/08/27 06:47:53;;;;;;;4.63;1.10;;;;;;;;;;5053652;28;20032;-79
2023/08/27 06:50:20;;;;;;;1.20;1.00;;;;;;;;;;5051894;28;20029;-79
2023/08/27 06:52:45;;;;;;;1.25;1.00;;;;;;;;;;5053375;28;20475;-79
2023/08/27 06:55:10;;;;;;;0.85;0.85;;;;;;;;;;5052072;28;20028;-79
2023/08/27 06:57:37;;;;;;;1.45;0.90;;;;;;;;;;5053187;28;20052;-80
2023/08/27 07:00:07;;;;;;;1.15;1.00;;;;;;;;;;5053164;28;20037;-80
2023/08/27 07:02:32;;;;;;;0.95;0.90;;;;;;;;;;5034578;28;20053;-80
2023/08/27 07:04:59;;;;;;;1.88;1.10;;;;;;;;;;5034490;28;20053;-78
2023/08/27 07:07:25;;;;;;;1.92;1.00;;;;;;;;;;5051055;28;20135;-79
2023/08/27 07:09:50;;;;;;;2.17;1.00;;;;;;;;;;5051124;28;20100;-78
2023/08/27 07:12:17;;;;;;;3.65;1.30;;;;;;;;;;5050964;28;20040;-79
2023/08/27 07:14:42;;;;;;;2.85;1.33;;;;;;;;;;5051095;28;20029;-79
2023/08/27 07:17:08;;;;;;;10.57;1.60;;;;;;;;;;5052272;28;20125;-79
2023/08/27 07:19:33;;;;;;;2.53;1.48;;;;;;;;;;5052638;28;20400;-79
2023/08/27 07:21:59;;;;;;;3.47;1.35;;;;;;;;;;5038152;28;20162;-79
2023/08/27 07:24:24;;;;;;;3.47;1.52;;;;;;;;;;5038138;28;20044;-78
2023/08/27 07:26:50;;;;;;;3.65;1.40;;;;;;;;;;5054617;28;20036;-79
2023/08/27 07:29:15;;;;;;;5.30;1.67;;;;;;;;;;5055750;28;20523;-78
2023/08/27 07:31:40;;;;;;;2.83;1.35;;;;;;;;;;5055606;28;20029;-79
2023/08/27 07:34:06;;;;;;;4.07;1.55;;;;;;;;;;5055764;28;20472;-79
2023/08/27 07:36:31;;;;;;;4.00;1.10;;;;;;;;;;5055713;28;20032;-79
2023/08/27 07:38:57;;;;;;;2.17;1.20;;;;;;;;;;5037978;28;20045;-80
2023/08/27 07:41:22;;;;;;;3.83;1.20;;;;;;;;;;5055722;28;20044;-78
2023/08/27 07:43:48;;;;;;;2.22;1.15;;;;;;;;;;5055541;28;20108;-77
2023/08/27 07:46:13;;;;;;;4.93;1.20;;;;;;;;;;5055438;28;20384;-79
2023/08/27 07:48:39;;;;;;;2.25;1.38;;;;;;;;;;5055454;28;20025;-79
2023/08/27 07:51:04;;;;;;;2.13;1.10;;;;;;;;;;5055382;28;20447;-80
2023/08/27 07:53:29;;;;;;;1.73;0.90;;;;;;;;;;5055381;28;20032;-79
2023/08/27 07:55:55;;;;;;;3.00;1.30;;;;;;;;;;5037488;28;20074;-78
2023/08/27 07:58:21;;;;;;;2.63;1.20;;;;;;;;;;5055409;28;20024;-78
2023/08/27 08:00:46;;;;;;;4.65;1.10;;;;;;;;;;5037423;28;20073;-79
2023/08/27 08:03:12;;;;;;;6.43;1.10;;;;;;;;;;5053959;28;20044;-78
2023/08/27 08:05:37;;;;;;;4.28;1.70;;;;;;;;;;5053951;28;20029;-78
2023/08/27 08:08:03;;;;;;;10.68;1.25;;;;;;;;;;5037208;28;20040;-78
2023/08/27 08:10:29;;;;;;;2.75;1.40;;;;;;;;;;5055018;28;20029;-78
2023/08/27 08:12:54;;;;;;;1.98;1.30;;;;;;;;;;5054811;28;20607;-78
2023/08/27 08:15:19;;;;;;;5.70;1.50;;;;;;;;;;5054815;28;20518;-78
2023/08/27 08:17:45;;;;;;;3.00;1.83;;;;;;;;;;5053606;28;20127;-78
2023/08/27 08:20:14;;;;;;;20.35;4.18;;;;;;;;;;5053432;28;20139;-79
2023/08/27 08:22:39;;;;;;;11.13;3.50;;;;;;;;;;5054840;28;20051;-78
2023/08/27 08:25:06;;;;;;;6.70;2.80;;;;;;;;;;5053229;28;20555;-78
2023/08/27 08:27:32;;;;;;;14.38;2.65;;;;;;;;;;5053592;28;20029;-79
2023/08/27 08:29:57;;;;;;;7.88;2.22;;;;;;;;;;5054233;28;20116;-79
2023/08/27 08:32:22;;;;;;;6.18;2.60;;;;;;;;;;5052585;28;20029;-79
2023/08/27 08:34:48;;;;;;;6.00;2.45;;;;;;;;;;5053751;28;20017;-79
2023/08/27 08:37:13;;;;;;;5.85;2.42;;;;;;;;;;5037073;28;20024;-80
2023/08/27 08:39:40;;;;;;;6.88;2.80;;;;;;;;;;5055071;28;20396;-80
2023/08/27 08:42:10;;;;;;;6.88;2.90;;;;;;;;;;5037307;28;20492;-79
2023/08/27 08:45:13;;;;;;;5.20;2.50;;;;;;;;;;5053905;28;20024;-79
2023/08/27 08:47:39;;;;;;;3.50;1.80;;;;;;;;;;5037303;28;20040;-77
2023/08/27 08:50:08;;;;;;;4.30;2.08;;;;;;;;;;5055013;28;20025;-79
2023/08/27 08:52:38;;;;;;;5.28;2.05;;;;;;;;;;5053852;28;20615;-76
2023/08/27 08:55:07;;;;;;;3.17;2.00;;;;;;;;;;5053161;28;20029;-78
2023/08/27 08:57:39;;;;;;;5.50;2.10;;;;;;;;;;5036651;28;20052;-76
2023/08/27 09:00:07;;;;;;;7.53;1.98;;;;;;;;;;5036423;28;20021;-77
2023/08/27 09:02:33;;;;;;;6.57;2.13;;;;;;;;;;5052787;28;20079;-80
2023/08/27 09:04:59;;;;;;;2.65;1.92;;;;;;;;;;5053254;28;20103;-80
2023/08/27 09:07:25;;;;;;;4.60;1.42;;;;;;;;;;5053211;28;20076;-76
2023/08/27 09:09:51;;;;;;;7.35;2.30;;;;;;;;;;5053190;28;20035;-80
2023/08/27 09:12:17;;;;;;;3.60;1.95;;;;;;;;;;5052975;28;20395;-77
2023/08/27 09:14:42;;;;;;;6.78;2.08;;;;;;;;;;5054074;28;20029;-77
2023/08/27 09:17:10;;;;;;;5.80;2.00;;;;;;;;;;5054220;28;20028;-79
2023/08/27 09:19:35;;;;;;;4.80;1.95;;;;;;;;;;5052725;28;20036;-79
2023/08/27 09:22:01;;;;;;;3.45;2.15;;;;;;;;;;5052589;28;20025;-78
2023/08/27 09:24:27;;;;;;;7.88;2.03;;;;;;;;;;5052491;28;20032;-78
2023/08/27 09:26:52;;;;;;;5.97;2.10;;;;;;;;;;5052529;28;20593;-78
2023/08/27 09:29:18;;;;;;;2.88;1.80;;;;;;;;;;5052493;28;20032;-79
2023/08/27 09:31:45;;;;;;;8.05;2.05;;;;;;;;;;5052158;28;20499;-79
2023/08/27 09:34:13;;;;;;;2.50;2.00;;;;;;;;;;5053548;28;20107;-79
2023/08/27 09:36:38;;;;;;;6.68;2.25;;;;;;;;;;5052440;28;20056;-78
2023/08/27 09:39:13;;;;;;;3.08;1.88;;;;;;;;;;5052296;28;20060;-79
2023/08/27 09:41:43;;;;;;;3.75;1.80;;;;;;;;;;5052082;28;20159;-78
2023/08/27 09:44:09;;;;;;;4.07;1.80;;;;;;;;;;5035684;28;20025;-78
2023/08/27 09:46:36;;;;;;;2.47;1.70;;;;;;;;;;5035377;28;20059;-78
2023/08/27 09:49:06;;;;;;;2.30;1.55;;;;;;;;;;5052366;28;20108;-79
2023/08/27 09:51:39;;;;;;;2.13;1.60;;;;;;;;;;5052255;28;20021;-78
2023/08/27 09:54:19;;;;;;;4.53;1.80;;;;;;;;;;5053416;28;20479;-78
2023/08/27 09:56:46;;;;;;;4.00;2.00;;;;;;;;;;5053572;28;20033;-78
2023/08/27 09:59:16;;;;;;;3.40;1.60;;;;;;;;;;5053618;28;20098;-77
2023/08/27 10:01:45;;;;;;;4.75;1.67;;;;;;;;;;5052122;28;20075;-77
2023/08/27 10:04:11;;;;;;;3.55;1.73;;;;;;;;;;5052275;28;20049;-79
2023/08/27 10:06:37;;;;;;;3.20;1.70;;;;;;;;;;5053642;28;20396;-78
2023/08/27 10:09:03;;;;;;;4.82;1.40;;;;;;;;;;5036769;28;20430;-76
2023/08/27 10:11:28;;;;;;;3.22;1.40;;;;;;;;;;5054511;28;20054;-77
2023/08/27 10:13:54;;;;;;;1.33;1.23;;;;;;;;;;5053752;28;20047;-78
2023/08/27 10:16:21;;;;;;;2.30;1.30;;;;;;;;;;5054935;28;20033;-77
2023/08/27 10:18:47;;;;;;;1.35;1.20;;;;;;;;;;5056053;28;20029;-78
2023/08/27 10:21:12;;;;;;;6.10;1.20;;;;;;;;;;5056522;28;20064;-77
2023/08/27 10:23:39;;;;;;;2.08;1.60;;;;;;;;;;5064264;28;20039;-78
2023/08/27 10:26:05;;;;;;;4.03;1.70;;;;;;;;;;5058060;28;20121;-78
2023/08/27 10:28:31;;;;;;;1.20;1.10;;;;;;;;;;5055530;28;20021;-78
2023/08/27 10:30:57;;;;;;;2.00;1.60;;;;;;;;;;5053673;28;20021;-77
2023/08/27 10:33:22;;;;;;;2.55;1.20;;;;;;;;;;5053078;28;20045;-78
2023/08/27 10:35:50;;;;;;;1.58;1.20;;;;;;;;;;5035891;28;20032;-78
2023/08/27 10:38:16;;;;;;;1.13;1.10;;;;;;;;;;5053919;28;20052;-78
2023/08/27 10:40:43;;;;;;;1.13;1.00;;;;;;;;;;5052905;28;20122;-77
2023/08/27 10:43:16;;;;;;;1.90;1.08;;;;;;;;;;5053846;28;20041;-77
2023/08/27 10:45:42;;;;;;;1.10;1.00;;;;;;;;;;5051956;28;20025;-79
2023/08/27 10:48:07;;;;;;;2.65;1.20;;;;;;;;;;5053230;28;20036;-78
2023/08/27 10:50:42;;;;;;;2.83;1.38;;;;;;;;;;5052467;28;20033;-77
2023/08/27 10:53:07;;;;;;;1.95;1.10;;;;;;;;;;5052072;28;20400;-77
2023/08/27 10:55:35;;;;;;;1.33;1.13;;;;;;;;;;5056792;28;20033;-78
2023/08/27 10:58:17;;;;;;;1.35;1.15;;;;;;;;;;5056626;28;20025;-77
2023/08/27 11:01:09;;;;;;;1.58;1.23;;;;;;;;;;5058957;28;20495;-78
2023/08/27 11:03:57;;;;;;;2.25;0.90;;;;;;;;;;5056875;28;20123;-78
2023/08/27 11:06:38;;;;;;;2.60;1.20;;;;;;;;;;5056772;28;20028;-78
2023/08/27 11:09:29;;;;;;;1.63;0.93;;;;;;;;;;5058026;28;20483;-79
2023/08/27 11:12:03;;;;;;;2.22;1.00;;;;;;;;;;5057631;28;20028;-78
2023/08/27 11:14:29;;;;;;;5.53;1.00;;;;;;;;;;5040218;28;20021;-78
2023/08/27 11:17:03;;;;;;;2.28;1.35;;;;;;;;;;5056718;28;20059;-78
2023/08/27 11:19:36;;;;;;;1.02;1.00;;;;;;;;;;5056711;28;20040;-78
2023/08/27 11:22:13;;;;;;;1.40;1.05;;;;;;;;;;5057205;28;20032;-78
2023/08/27 11:24:43;;;;;;;2.63;1.10;;;;;;;;;;5056751;28;20419;-78
2023/08/27 11:27:10;;;;;;;1.40;1.10;;;;;;;;;;5057135;28;20346;-78
2023/08/27 11:29:40;;;;;;;0.93;0.93;;;;;;;;;;5058395;28;20440;-78
2023/08/27 11:32:07;;;;;;;1.08;1.02;;;;;;;;;;5039976;28;20036;-78
2023/08/27 11:34:36;;;;;;;1.40;1.00;;;;;;;;;;5039418;28;20063;-78
2023/08/27 11:37:04;;;;;;;3.17;0.82;;;;;;;;;;5056330;28;20051;-78
2023/08/27 11:39:29;;;;;;;1.63;0.90;;;;;;;;;;5056446;28;20049;-79
2023/08/27 11:41:55;;;;;;;1.17;1.08;;;;;;;;;;5055982;28;20060;-78
2023/08/27 11:44:20;;;;;;;0.98;0.80;;;;;;;;;;5056150;28;20036;-78
2023/08/27 11:46:46;;;;;;;1.50;1.00;;;;;;;;;;5055539;28;20037;-78
2023/08/27 11:49:13;;;;;;;1.38;1.10;;;;;;;;;;5038851;28;20388;-78
2023/08/27 11:51:42;;;;;;;2.35;1.20;;;;;;;;;;5056571;28;20479;-78
2023/08/27 11:54:08;;;;;;;2.80;0.90;;;;;;;;;;5055254;28;20109;-78
2023/08/27 11:56:37;;;;;;;2.45;0.90;;;;;;;;;;5055916;28;20043;-78
2023/08/27 11:59:06;;;;;;;1.33;0.90;;;;;;;;;;5055675;28;20029;-78
2023/08/27 12:01:33;;;;;;;2.22;1.00;;;;;;;;;;5056437;28;20033;-78
2023/08/27 12:03:58;;;;;;;1.17;1.00;;;;;;;;;;5055168;28;20052;-78
2023/08/27 12:06:25;;;;;;;1.25;1.00;;;;;;;;;;5054968;28;20100;-78
2023/08/27 12:08:54;;;;;;;0.80;0.80;;;;;;;;;;5054854;28;20025;-78
2023/08/27 12:11:25;;;;;;;1.73;0.80;;;;;;;;;;5056220;28;20029;-78
2023/08/27 12:13:53;;;;;;;1.63;0.80;;;;;;;;;;5038664;28;20020;-77
2023/08/27 12:16:29;;;;;;;0.80;0.80;;;;;;;;;;5055531;28;20112;-78
2023/08/27 12:19:08;;;;;;;1.48;0.90;;;;;;;;;;5056845;28;20480;-78
2023/08/27 12:21:50;;;;;;;0.98;0.60;;;;;;;;;;5057403;28;20468;-78
2023/08/27 12:24:45;;;;;;;0.85;0.85;;;;;;;;;;5055155;28;20036;-78
2023/08/27 12:27:15;;;;;;;0.93;0.80;;;;;;;;;;5026006;28;20412;-77
2023/08/27 12:29:42;;;;;;;0.88;0.80;;;;;;;;;;5038682;28;20530;-78
2023/08/27 12:32:12;;;;;;;0.93;0.70;;;;;;;;;;5055653;28;20033;-78
2023/08/27 12:34:43;;;;;;;1.58;0.90;;;;;;;;;;5057316;28;20029;-79
2023/08/27 12:37:09;;;;;;;2.10;0.73;;;;;;;;;;5056121;28;20021;-78
2023/08/27 12:39:37;;;;;;;0.50;0.50;;;;;;;;;;5056267;28;20032;-79
2023/08/27 12:42:03;;;;;;;2.03;0.80;;;;;;;;;;5055991;28;20045;-79
2023/08/27 12:44:29;;;;;;;1.17;0.55;;;;;;;;;;5039310;28;20028;-79
2023/08/27 12:46:54;;;;;;;1.45;0.70;;;;;;;;;;5038949;28;20081;-79
2023/08/27 12:49:20;;;;;;;0.68;0.68;;;;;;;;;;5055621;28;20399;-79
2023/08/27 12:51:46;;;;;;;0.90;0.60;;;;;;;;;;5038875;28;20033;-78
2023/08/27 12:54:11;;;;;;;1.25;0.82;;;;;;;;;;5038841;28;20044;-78
2023/08/27 12:56:37;;;;;;;0.65;0.63;;;;;;;;;;5039034;28;20112;-78
2023/08/27 12:59:03;;;;;;;2.80;0.90;;;;;;;;;;5054944;28;20029;-78
2023/08/27 13:01:29;;;;;;;1.42;0.82;;;;;;;;;;5057119;28;20052;-78
2023/08/27 13:03:54;;;;;;;0.70;0.70;;;;;;;;;;5054264;28;20496;-78
2023/08/27 13:06:20;;;;;;;1.38;0.85;;;;;;;;;;5055412;28;20055;-77
2023/08/27 13:08:45;;;;;;;0.60;0.60;;;;;;;;;;5054803;28;20496;-77
2023/08/27 13:11:10;;;;;;;0.85;0.60;;;;;;;;;;5054358;28;20109;-78
2023/08/27 13:13:37;;;;;;;0.98;0.60;;;;;;;;;;5054152;28;20021;-78
2023/08/27 13:16:02;;;;;;;0.85;0.68;;;;;;;;;;5036512;28;20040;-78
2023/08/27 13:18:27;;;;;;;0.73;0.65;;;;;;;;;;5054390;28;20395;-78
2023/08/27 13:20:53;;;;;;;0.70;0.70;;;;;;;;;;5036645;28;20178;-78
2023/08/27 13:23:20;;;;;;;0.63;0.63;;;;;;;;;;5054727;28;20036;-78
2023/08/27 13:25:46;;;;;;;0.65;0.60;;;;;;;;;;5053586;28;20039;-78
2023/08/27 13:28:13;;;;;;;0.80;0.80;;;;;;;;;;5054638;28;20039;-79
2023/08/27 13:30:38;;;;;;;0.70;0.60;;;;;;;;;;5053759;28;20032;-78
2023/08/27 13:33:04;;;;;;;1.15;0.55;;;;;;;;;;5054141;28;20029;-78
2023/08/27 13:35:29;;;;;;;1.65;0.63;;;;;;;;;;5054222;28;20031;-79
2023/08/27 13:37:55;;;;;;;1.52;0.60;;;;;;;;;;5054543;28;20352;-78
2023/08/27 13:40:20;;;;;;;1.10;0.70;;;;;;;;;;5054190;28;20123;-78
2023/08/27 13:42:45;;;;;;;2.25;0.77;;;;;;;;;;5054542;28;20040;-78
2023/08/27 13:45:11;;;;;;;2.22;1.00;;;;;;;;;;5052981;28;20087;-78
2023/08/27 13:47:36;;;;;;;1.48;0.65;;;;;;;;;;5052878;28;20076;-78
2023/08/27 13:50:02;;;;;;;2.25;0.73;;;;;;;;;;5054014;28;20036;-78
2023/08/27 13:52:27;;;;;;;2.65;0.60;;;;;;;;;;5053062;28;20036;-79
2023/08/27 13:54:52;;;;;;;1.42;0.50;;;;;;;;;;5035946;28;20090;-78
2023/08/27 13:57:18;;;;;;;1.08;0.80;;;;;;;;;;5053856;28;20479;-78
2023/08/27 13:59:44;;;;;;;0.70;0.70;;;;;;;;;;5036232;28;20040;-78
2023/08/27 14:02:09;;;;;;;0.52;0.52;;;;;;;;;;5053778;28;20084;-78
2023/08/27 14:04:36;;;;;;;1.92;0.88;;;;;;;;;;5053980;28;20029;-79
2023/08/27 14:07:03;;;;;;;0.63;0.63;;;;;;;;;;5052680;28;20078;-79
2023/08/27 14:09:29;;;;;;;4.18;0.60;;;;;;;;;;5052779;28;20055;-78
2023/08/27 14:11:54;;;;;;;0.50;0.50;;;;;;;;;;5052316;28;20037;-78
2023/08/27 14:14:20;;;;;;;1.92;0.80;;;;;;;;;;5053040;28;20037;-78
2023/08/27 14:16:45;;;;;;;1.52;0.70;;;;;;;;;;5036502;28;20077;-78
2023/08/27 14:19:10;;;;;;;1.90;0.70;;;;;;;;;;5052570;28;20028;-78
2023/08/27 14:21:36;;;;;;;1.08;0.75;;;;;;;;;;5053828;28;20099;-78
2023/08/27 14:24:01;;;;;;;3.17;0.93;;;;;;;;;;5053832;28;20040;-78
2023/08/27 14:26:27;;;;;;;0.90;0.80;;;;;;;;;;5051760;28;20029;-78
2023/08/27 14:28:53;;;;;;;1.02;1.00;;;;;;;;;;5053301;28;20017;-77
2023/08/27 14:31:19;;;;;;;2.03;0.93;;;;;;;;;;5051990;28;20128;-77
2023/08/27 14:33:44;;;;;;;1.85;1.10;;;;;;;;;;5052610;28;20060;-79
2023/08/27 14:36:10;;;;;;;1.98;1.25;;;;;;;;;;5054138;28;20029;-78
2023/08/27 14:38:35;;;;;;;2.10;1.10;;;;;;;;;;5052857;28;20025;-78
2023/08/27 14:41:01;;;;;;;2.15;1.10;;;;;;;;;;5052363;28;20025;-78